createdAt,value
2022-09-02T00:05:57.735Z,13.44
2022-09-02T00:12:22.065Z,13.30
2022-09-02T00:18:47.040Z,13.20
2022-09-02T00:25:10.109Z,13.13
2022-09-02T00:31:37.566Z,13.06
2022-09-02T00:38:03.940Z,13.06
2022-09-02T00:44:29.364Z,13.10
2022-09-02T00:50:46.756Z,13.04
2022-09-02T00:57:12.127Z,12.98
2022-09-02T01:03:43.324Z,12.92
2022-09-02T01:10:07.652Z,12.97
2022-09-02T01:16:32.043Z,12.97
2022-09-02T01:22:58.896Z,12.94
2022-09-02T01:29:23.054Z,12.98
2022-09-02T01:35:50.463Z,12.85
2022-09-02T01:42:22.755Z,12.67
2022-09-02T01:48:46.897Z,12.43
2022-09-02T01:55:12.014Z,12.30
2022-09-02T02:01:38.453Z,12.25
2022-09-02T02:08:03.789Z,12.13
2022-09-02T02:14:30.257Z,12.23
2022-09-02T02:20:56.313Z,12.25
2022-09-02T02:27:11.384Z,12.24
2022-09-02T02:33:44.012Z,12.31
2022-09-02T02:40:09.431Z,12.21
2022-09-02T02:46:33.791Z,12.15
2022-09-02T02:53:00.428Z,12.20
2022-09-02T02:59:24.673Z,12.29
2022-09-02T03:05:46.215Z,12.40
2022-09-02T03:12:11.720Z,12.42
2022-09-02T03:18:36.928Z,12.26
2022-09-02T03:25:02.377Z,12.19
2022-09-02T03:31:28.021Z,12.17
2022-09-02T03:37:52.822Z,12.14
2022-09-02T03:44:17.963Z,12.03
2022-09-02T03:50:45.296Z,11.86
2022-09-02T03:57:09.627Z,11.70
2022-09-02T04:03:34.997Z,11.64
2022-09-02T04:10:00.433Z,11.65
2022-09-02T04:16:27.900Z,11.73
2022-09-02T04:22:44.944Z,11.81
2022-09-02T04:29:09.965Z,11.72
2022-09-02T04:35:17.956Z,11.70
2022-09-02T04:41:41.992Z,11.65
2022-09-02T04:48:06.681Z,11.40
2022-09-02T04:54:32.021Z,11.27
2022-09-02T05:00:57.683Z,11.28
2022-09-02T05:07:23.806Z,11.17
2022-09-02T05:13:27.660Z,11.20
2022-09-02T05:19:53.746Z,11.39
2022-09-02T05:26:18.010Z,11.66
2022-09-02T05:32:43.393Z,11.90
2022-09-02T05:38:59.183Z,12.66
2022-09-02T05:45:24.515Z,13.65
2022-09-02T05:51:49.928Z,14.30
2022-09-02T05:58:14.236Z,14.80
2022-09-02T06:04:31.769Z,15.13
2022-09-02T06:10:59.920Z,15.31
2022-09-02T06:17:25.427Z,15.60
2022-09-02T06:23:48.643Z,16.10
2022-09-02T06:29:54.751Z,16.01
2022-09-02T06:35:59.180Z,16.15
2022-09-02T06:41:48.826Z,16.12
2022-09-02T06:48:13.207Z,16.17
2022-09-02T06:54:39.984Z,16.18
2022-09-02T07:00:54.309Z,16.32
2022-09-02T07:07:25.732Z,16.41
2022-09-02T07:13:51.052Z,16.65
2022-09-02T07:20:16.491Z,16.88
2022-09-02T07:26:44.380Z,16.97
2022-09-02T07:33:02.363Z,17.14
2022-09-02T07:39:22.576Z,17.27
2022-09-02T07:45:47.025Z,17.52
2022-09-02T07:51:53.698Z,17.59
2022-09-02T07:58:20.755Z,17.74
2022-09-02T08:04:46.508Z,17.95
2022-09-02T08:11:11.199Z,18.17
2022-09-02T08:17:34.316Z,18.23
2022-09-02T08:23:40.300Z,18.26
2022-09-02T08:30:10.966Z,18.37
2022-09-02T08:36:36.281Z,18.34
2022-09-02T08:43:16.156Z,18.49
2022-09-02T08:49:50.306Z,18.54
2022-09-02T08:56:28.588Z,18.65
2022-09-02T09:02:59.894Z,18.71
2022-09-02T09:09:51.590Z,18.84
2022-09-02T09:16:30.245Z,19.10
2022-09-02T09:22:54.381Z,19.47
2022-09-02T09:29:11.449Z,19.85
2022-09-02T09:35:50.174Z,20.03
2022-09-02T09:42:04.602Z,20.01
2022-09-02T09:48:28.924Z,19.90
2022-09-02T09:54:56.120Z,20.15
2022-09-02T10:01:20.533Z,20.53
2022-09-02T10:07:45.328Z,20.87
2022-09-02T10:14:26.547Z,21.05
2022-09-02T10:21:16.642Z,21.13
2022-09-02T10:27:48.977Z,20.65
2022-09-02T10:34:19.264Z,20.56
2022-09-02T10:40:58.737Z,20.69
2022-09-02T10:47:29.404Z,20.61
2022-09-02T10:53:48.026Z,20.78
2022-09-02T11:00:08.972Z,20.65
2022-09-02T11:06:26.213Z,20.71
2022-09-02T11:12:36.959Z,20.79
2022-09-02T11:18:36.970Z,21.01
2022-09-02T11:24:27.703Z,21.49
2022-09-02T11:30:32.344Z,22.14
2022-09-02T11:36:47.145Z,21.89
2022-09-02T11:43:03.029Z,21.92
2022-09-02T11:49:29.075Z,22.07
2022-09-02T11:56:02.792Z,22.33
2022-09-02T12:02:32.983Z,22.48
2022-09-02T12:09:03.198Z,22.49
2022-09-02T12:15:27.880Z,22.21
2022-09-02T12:22:01.480Z,22.20
2022-09-02T12:28:23.889Z,22.37
2022-09-02T12:35:02.232Z,22.09
2022-09-02T12:41:30.520Z,22.18
2022-09-02T12:47:54.804Z,22.23
2022-09-02T12:54:24.978Z,22.00
2022-09-02T13:00:49.553Z,21.19
2022-09-02T13:07:33.294Z,20.66
2022-09-02T13:13:46.750Z,20.33
2022-09-02T13:20:29.847Z,20.78
2022-09-02T13:27:13.900Z,21.75
2022-09-02T13:33:47.808Z,22.06
2022-09-02T13:40:24.874Z,21.72
2022-09-02T13:46:53.461Z,21.19
2022-09-02T13:53:53.762Z,21.12
2022-09-02T14:00:28.974Z,21.05
2022-09-02T14:06:45.583Z,20.94
2022-09-02T14:13:05.359Z,20.78
2022-09-02T14:19:49.173Z,20.77
2022-09-02T14:26:17.822Z,20.85
2022-09-02T14:32:56.369Z,20.86
2022-09-02T14:39:22.271Z,20.79
2022-09-02T14:45:31.467Z,20.95
2022-09-02T14:51:59.190Z,21.16
2022-09-02T14:58:32.303Z,21.11
2022-09-02T15:04:58.528Z,20.84
2022-09-02T15:11:30.621Z,20.69
2022-09-02T15:17:53.816Z,20.58
2022-09-02T15:24:21.131Z,20.53
2022-09-02T15:30:41.108Z,20.58
2022-09-02T15:37:14.123Z,20.60
2022-09-02T15:43:44.122Z,20.39
2022-09-02T15:50:10.787Z,20.25
2022-09-02T15:56:38.733Z,20.20
2022-09-02T16:03:04.002Z,20.17
2022-09-02T16:09:32.990Z,20.26
2022-09-02T16:15:49.161Z,20.22
2022-09-02T16:22:15.214Z,20.14
2022-09-02T16:28:28.747Z,19.92
2022-09-02T16:34:56.406Z,19.60
2022-09-02T16:41:00.608Z,19.27
2022-09-02T16:47:06.581Z,19.01
2022-09-02T16:53:31.546Z,18.87
2022-09-02T16:59:48.330Z,18.64
2022-09-02T17:05:53.927Z,18.50
2022-09-02T17:12:09.746Z,18.40
2022-09-02T17:18:19.080Z,18.18
2022-09-02T17:24:43.509Z,18.01
2022-09-02T17:31:08.073Z,17.87
2022-09-02T17:37:43.713Z,17.66
2022-09-02T17:44:09.442Z,17.45
2022-09-02T17:50:36.946Z,17.27
2022-09-02T17:56:59.855Z,17.09
2022-09-02T18:03:23.877Z,16.91
2022-09-02T18:09:36.815Z,16.72
2022-09-02T18:16:03.678Z,16.61
2022-09-02T18:22:36.135Z,16.49
2022-09-02T18:29:21.520Z,16.38
2022-09-02T18:36:09.676Z,16.19
2022-09-02T18:42:48.822Z,16.02
2022-09-02T18:49:18.731Z,15.92
2022-09-02T18:56:01.626Z,15.82
2022-09-02T19:02:31.017Z,15.77
2022-09-02T19:09:01.051Z,15.77
2022-09-02T19:15:36.828Z,15.75
2022-09-02T19:22:04.728Z,15.71
2022-09-02T19:28:30.784Z,15.69
2022-09-02T19:34:44.246Z,15.64
2022-09-02T19:41:09.744Z,15.51
2022-09-02T19:54:30.423Z,15.21
2022-09-02T20:00:56.371Z,15.07
2022-09-02T20:07:23.651Z,14.92
2022-09-02T20:13:50.113Z,14.78
2022-09-02T20:20:28.307Z,14.63
2022-09-02T20:26:54.829Z,14.55
2022-09-02T20:33:33.452Z,14.51
2022-09-02T20:40:05.086Z,14.56
2022-09-02T20:46:46.540Z,14.56
2022-09-02T20:53:10.891Z,14.62
2022-09-02T20:59:51.514Z,14.72
2022-09-02T21:06:22.791Z,14.77
2022-09-02T21:13:18.696Z,14.73
2022-09-02T21:20:01.734Z,14.74
2022-09-02T21:26:28.932Z,14.73
2022-09-02T21:33:12.135Z,14.69
2022-09-02T21:39:28.099Z,14.66
2022-09-02T21:46:05.732Z,14.61
2022-09-02T21:52:38.773Z,14.55
2022-09-02T21:59:13.661Z,14.49
2022-09-02T22:12:22.490Z,14.41
2022-09-02T22:18:54.212Z,14.30
2022-09-02T22:25:21.641Z,14.20
2022-09-02T22:31:53.805Z,14.13
2022-09-02T22:38:38.869Z,14.13
2022-09-02T22:45:29.573Z,14.19
2022-09-02T22:52:11.475Z,14.26
2022-09-02T22:58:51.133Z,14.30
2022-09-02T23:05:18.636Z,14.27
2022-09-02T23:11:44.807Z,14.15
2022-09-02T23:18:21.427Z,14.04
2022-09-02T23:25:02.341Z,13.91
2022-09-02T23:31:38.432Z,13.80
2022-09-02T23:38:07.306Z,13.73
2022-09-02T23:44:43.288Z,13.68
2022-09-02T23:51:13.548Z,13.63
2022-09-02T23:58:00.392Z,13.56
